sensor_id;sensor_type;location;lat;lon;timestamp;temperature;humidity
4090;DHT22;2059;48.538;12.146;2023-12-20T00:00:30;5.80;99.20
4090;DHT22;2059;48.538;12.146;2023-12-20T00:05:33;5.80;99.40
4090;DHT22;2059;48.538;12.146;2023-12-20T00:10:35;5.80;99.80
4090;DHT22;2059;48.538;12.146;2023-12-20T00:15:37;5.60;99.80
4090;DHT22;2059;48.538;12.146;2023-12-20T00:20:40;5.30;99.90
4090;DHT22;2059;48.538;12.146;2023-12-20T00:25:42;5.30;99.90
4090;DHT22;2059;48.538;12.146;2023-12-20T00:30:44;5.40;99.90
4090;DHT22;2059;48.538;12.146;2023-12-20T00:35:47;5.50;99.90
4090;DHT22;2059;48.538;12.146;2023-12-20T00:40:49;5.70;99.90
4090;DHT22;2059;48.538;12.146;2023-12-20T00:45:51;5.80;99.50
4090;DHT22;2059;48.538;12.146;2023-12-20T00:50:54;5.70;99.20
4090;DHT22;2059;48.538;12.146;2023-12-20T00:55:55;5.80;99.20
4090;DHT22;2059;48.538;12.146;2023-12-20T01:00:59;6.10;98.50
4090;DHT22;2059;48.538;12.146;2023-12-20T01:06:02;5.90;98.50
4090;DHT22;2059;48.538;12.146;2023-12-20T01:11:05;6.10;98.00
4090;DHT22;2059;48.538;12.146;2023-12-20T01:16:10;6.20;97.70
4090;DHT22;2059;48.538;12.146;2023-12-20T01:21:14;6.20;97.80
4090;DHT22;2059;48.538;12.146;2023-12-20T01:26:15;6.30;97.90
4090;DHT22;2059;48.538;12.146;2023-12-20T01:31:17;6.30;97.50
4090;DHT22;2059;48.538;12.146;2023-12-20T01:36:20;6.30;97.60
4090;DHT22;2059;48.538;12.146;2023-12-20T01:41:22;6.10;98.10
4090;DHT22;2059;48.538;12.146;2023-12-20T01:46:24;5.90;98.60
4090;DHT22;2059;48.538;12.146;2023-12-20T01:51:28;6.00;98.60
4090;DHT22;2059;48.538;12.146;2023-12-20T01:56:30;6.10;98.30
4090;DHT22;2059;48.538;12.146;2023-12-20T02:01:33;6.20;98.50
4090;DHT22;2059;48.538;12.146;2023-12-20T02:06:37;6.20;98.40
4090;DHT22;2059;48.538;12.146;2023-12-20T02:11:42;6.20;98.30
4090;DHT22;2059;48.538;12.146;2023-12-20T02:16:43;6.70;97.20
4090;DHT22;2059;48.538;12.146;2023-12-20T02:21:47;6.90;96.60
4090;DHT22;2059;48.538;12.146;2023-12-20T02:26:49;6.60;96.50
4090;DHT22;2059;48.538;12.146;2023-12-20T02:31:51;6.50;96.80
4090;DHT22;2059;48.538;12.146;2023-12-20T02:36:54;7.00;96.30
4090;DHT22;2059;48.538;12.146;2023-12-20T02:41:56;6.80;96.50
4090;DHT22;2059;48.538;12.146;2023-12-20T02:46:58;6.90;96.60
4090;DHT22;2059;48.538;12.146;2023-12-20T02:52:01;7.20;96.40
4090;DHT22;2059;48.538;12.146;2023-12-20T02:57:03;7.30;96.40
4090;DHT22;2059;48.538;12.146;2023-12-20T03:02:05;7.20;96.30
4090;DHT22;2059;48.538;12.146;2023-12-20T03:07:08;7.10;96.50
4090;DHT22;2059;48.538;12.146;2023-12-20T03:12:09;7.10;96.50
4090;DHT22;2059;48.538;12.146;2023-12-20T03:17:11;7.10;96.60
4090;DHT22;2059;48.538;12.146;2023-12-20T03:22:14;7.00;96.90
4090;DHT22;2059;48.538;12.146;2023-12-20T03:27:16;7.10;96.80
4090;DHT22;2059;48.538;12.146;2023-12-20T03:32:17;7.10;97.10
4090;DHT22;2059;48.538;12.146;2023-12-20T03:37:21;7.20;96.90
4090;DHT22;2059;48.538;12.146;2023-12-20T03:42:23;7.40;96.80
4090;DHT22;2059;48.538;12.146;2023-12-20T03:47:25;7.50;96.60
4090;DHT22;2059;48.538;12.146;2023-12-20T03:52:28;7.20;97.30
4090;DHT22;2059;48.538;12.146;2023-12-20T03:57:30;7.00;97.70
4090;DHT22;2059;48.538;12.146;2023-12-20T04:02:31;7.10;97.90
4090;DHT22;2059;48.538;12.146;2023-12-20T04:07:35;6.90;98.80
4090;DHT22;2059;48.538;12.146;2023-12-20T04:12:36;6.80;99.40
4090;DHT22;2059;48.538;12.146;2023-12-20T04:17:38;6.60;99.90
4090;DHT22;2059;48.538;12.146;2023-12-20T04:22:41;6.70;99.90
4090;DHT22;2059;48.538;12.146;2023-12-20T04:27:43;6.20;99.90
4090;DHT22;2059;48.538;12.146;2023-12-20T04:32:46;6.40;99.90
4090;DHT22;2059;48.538;12.146;2023-12-20T04:37:49;6.60;99.90
4090;DHT22;2059;48.538;12.146;2023-12-20T04:42:51;6.30;99.90
4090;DHT22;2059;48.538;12.146;2023-12-20T04:47:52;6.40;99.90
4090;DHT22;2059;48.538;12.146;2023-12-20T04:52:55;6.20;99.90
4090;DHT22;2059;48.538;12.146;2023-12-20T04:57:57;6.30;99.90
4090;DHT22;2059;48.538;12.146;2023-12-20T05:02:59;6.20;99.90
4090;DHT22;2059;48.538;12.146;2023-12-20T05:08:02;6.20;99.90
4090;DHT22;2059;48.538;12.146;2023-12-20T05:13:04;6.20;99.90
4090;DHT22;2059;48.538;12.146;2023-12-20T05:18:06;5.80;99.90
4090;DHT22;2059;48.538;12.146;2023-12-20T05:23:09;6.10;99.90
4090;DHT22;2059;48.538;12.146;2023-12-20T05:28:12;6.10;99.90
4090;DHT22;2059;48.538;12.146;2023-12-20T05:33:13;5.90;99.90
4090;DHT22;2059;48.538;12.146;2023-12-20T05:38:17;6.10;99.90
4090;DHT22;2059;48.538;12.146;2023-12-20T05:43:18;6.00;99.90
4090;DHT22;2059;48.538;12.146;2023-12-20T05:48:20;6.00;99.90
4090;DHT22;2059;48.538;12.146;2023-12-20T05:53:23;5.80;99.90
4090;DHT22;2059;48.538;12.146;2023-12-20T05:58:25;5.80;99.90
4090;DHT22;2059;48.538;12.146;2023-12-20T06:03:27;5.70;99.90
4090;DHT22;2059;48.538;12.146;2023-12-20T06:08:30;5.70;99.90
4090;DHT22;2059;48.538;12.146;2023-12-20T06:13:31;5.80;99.90
4090;DHT22;2059;48.538;12.146;2023-12-20T06:18:33;5.60;99.90
4090;DHT22;2059;48.538;12.146;2023-12-20T06:23:37;5.50;99.90
4090;DHT22;2059;48.538;12.146;2023-12-20T06:28:39;5.70;99.90
4090;DHT22;2059;48.538;12.146;2023-12-20T06:33:42;5.70;99.90
4090;DHT22;2059;48.538;12.146;2023-12-20T06:38:45;5.80;99.90
4090;DHT22;2059;48.538;12.146;2023-12-20T06:43:47;6.00;99.90
4090;DHT22;2059;48.538;12.146;2023-12-20T06:48:49;5.80;99.90
4090;DHT22;2059;48.538;12.146;2023-12-20T06:53:52;5.80;99.90
4090;DHT22;2059;48.538;12.146;2023-12-20T06:58:53;5.50;99.90
4090;DHT22;2059;48.538;12.146;2023-12-20T07:03:55;5.80;99.90
4090;DHT22;2059;48.538;12.146;2023-12-20T07:08:58;5.80;99.90
4090;DHT22;2059;48.538;12.146;2023-12-20T07:14:00;5.80;99.90
4090;DHT22;2059;48.538;12.146;2023-12-20T07:19:01;5.90;99.90
4090;DHT22;2059;48.538;12.146;2023-12-20T07:24:05;5.70;99.90
4090;DHT22;2059;48.538;12.146;2023-12-20T07:29:07;5.70;99.90
4090;DHT22;2059;48.538;12.146;2023-12-20T07:34:08;5.70;99.90
4090;DHT22;2059;48.538;12.146;2023-12-20T07:39:11;5.40;99.90
4090;DHT22;2059;48.538;12.146;2023-12-20T07:44:13;5.60;99.90
4090;DHT22;2059;48.538;12.146;2023-12-20T07:49:16;5.80;99.90
4090;DHT22;2059;48.538;12.146;2023-12-20T07:54:19;5.60;99.90
4090;DHT22;2059;48.538;12.146;2023-12-20T07:59:20;5.70;99.90
4090;DHT22;2059;48.538;12.146;2023-12-20T08:04:22;5.90;99.90
4090;DHT22;2059;48.538;12.146;2023-12-20T08:09:25;6.00;99.90
4090;DHT22;2059;48.538;12.146;2023-12-20T08:14:27;6.10;99.90
4090;DHT22;2059;48.538;12.146;2023-12-20T08:19:28;6.10;99.90
4090;DHT22;2059;48.538;12.146;2023-12-20T08:24:32;6.20;99.90
4090;DHT22;2059;48.538;12.146;2023-12-20T08:29:33;6.30;99.90
4090;DHT22;2059;48.538;12.146;2023-12-20T08:34:35;6.50;99.90
4090;DHT22;2059;48.538;12.146;2023-12-20T08:39:38;6.60;99.90
4090;DHT22;2059;48.538;12.146;2023-12-20T08:44:40;6.40;99.90
4090;DHT22;2059;48.538;12.146;2023-12-20T08:49:42;6.20;99.90
4090;DHT22;2059;48.538;12.146;2023-12-20T08:54:45;6.20;99.90
4090;DHT22;2059;48.538;12.146;2023-12-20T08:59:47;6.30;99.90
4090;DHT22;2059;48.538;12.146;2023-12-20T09:04:49;6.40;99.90
4090;DHT22;2059;48.538;12.146;2023-12-20T09:09:52;6.50;99.90
4090;DHT22;2059;48.538;12.146;2023-12-20T09:14:54;6.50;99.90
4090;DHT22;2059;48.538;12.146;2023-12-20T09:19:55;6.60;99.90
4090;DHT22;2059;48.538;12.146;2023-12-20T09:24:59;6.50;99.90
4090;DHT22;2059;48.538;12.146;2023-12-20T09:30:00;6.70;99.90
4090;DHT22;2059;48.538;12.146;2023-12-20T09:35:02;6.70;99.90
4090;DHT22;2059;48.538;12.146;2023-12-20T09:40:10;6.90;99.90
4090;DHT22;2059;48.538;12.146;2023-12-20T09:45:13;6.70;99.90
4090;DHT22;2059;48.538;12.146;2023-12-20T09:50:18;6.80;99.90
4090;DHT22;2059;48.538;12.146;2023-12-20T09:55:22;6.50;99.90
4090;DHT22;2059;48.538;12.146;2023-12-20T10:00:24;6.80;99.90
4090;DHT22;2059;48.538;12.146;2023-12-20T10:05:28;6.70;99.90
4090;DHT22;2059;48.538;12.146;2023-12-20T10:10:31;6.70;99.90
4090;DHT22;2059;48.538;12.146;2023-12-20T10:15:33;6.70;99.90
4090;DHT22;2059;48.538;12.146;2023-12-20T10:20:35;6.80;99.90
4090;DHT22;2059;48.538;12.146;2023-12-20T10:25:38;7.00;99.90
4090;DHT22;2059;48.538;12.146;2023-12-20T10:30:40;6.70;99.90
4090;DHT22;2059;48.538;12.146;2023-12-20T10:35:42;6.90;99.90
4090;DHT22;2059;48.538;12.146;2023-12-20T10:40:46;7.00;99.90
4090;DHT22;2059;48.538;12.146;2023-12-20T10:45:48;6.90;99.90
4090;DHT22;2059;48.538;12.146;2023-12-20T10:50:49;6.80;99.90
4090;DHT22;2059;48.538;12.146;2023-12-20T10:55:55;6.50;99.90
4090;DHT22;2059;48.538;12.146;2023-12-20T11:06:03;6.60;99.90
4090;DHT22;2059;48.538;12.146;2023-12-20T11:11:13;6.80;99.90
4090;DHT22;2059;48.538;12.146;2023-12-20T11:16:19;7.10;99.90
4090;DHT22;2059;48.538;12.146;2023-12-20T11:21:21;7.50;99.90
4090;DHT22;2059;48.538;12.146;2023-12-20T11:26:27;7.30;99.90
4090;DHT22;2059;48.538;12.146;2023-12-20T11:31:29;7.20;99.90
4090;DHT22;2059;48.538;12.146;2023-12-20T11:36:41;7.00;99.90
4090;DHT22;2059;48.538;12.146;2023-12-20T11:41:45;7.10;99.90
4090;DHT22;2059;48.538;12.146;2023-12-20T11:46:47;7.20;99.90
4090;DHT22;2059;48.538;12.146;2023-12-20T11:51:49;7.00;99.90
4090;DHT22;2059;48.538;12.146;2023-12-20T11:56:52;7.20;99.90
4090;DHT22;2059;48.538;12.146;2023-12-20T12:01:54;7.70;99.90
4090;DHT22;2059;48.538;12.146;2023-12-20T12:07:00;7.60;99.90
4090;DHT22;2059;48.538;12.146;2023-12-20T12:12:06;7.50;99.90
4090;DHT22;2059;48.538;12.146;2023-12-20T12:17:10;7.70;99.90
4090;DHT22;2059;48.538;12.146;2023-12-20T12:22:13;8.00;99.90
4090;DHT22;2059;48.538;12.146;2023-12-20T12:27:18;8.10;99.90
4090;DHT22;2059;48.538;12.146;2023-12-20T12:32:19;7.60;99.90
4090;DHT22;2059;48.538;12.146;2023-12-20T12:37:22;7.40;99.90
4090;DHT22;2059;48.538;12.146;2023-12-20T12:42:26;7.10;99.90
4090;DHT22;2059;48.538;12.146;2023-12-20T12:47:29;7.30;99.90
4090;DHT22;2059;48.538;12.146;2023-12-20T12:52:31;7.20;99.90
4090;DHT22;2059;48.538;12.146;2023-12-20T12:57:34;7.40;99.90
4090;DHT22;2059;48.538;12.146;2023-12-20T13:02:36;7.50;99.90
4090;DHT22;2059;48.538;12.146;2023-12-20T13:07:42;7.40;99.90
4090;DHT22;2059;48.538;12.146;2023-12-20T13:12:47;7.40;99.90
4090;DHT22;2059;48.538;12.146;2023-12-20T13:17:48;7.20;99.90
4090;DHT22;2059;48.538;12.146;2023-12-20T13:22:51;6.90;99.90
4090;DHT22;2059;48.538;12.146;2023-12-20T13:27:54;7.00;99.80
4090;DHT22;2059;48.538;12.146;2023-12-20T13:32:56;6.80;99.80
4090;DHT22;2059;48.538;12.146;2023-12-20T13:37:58;6.70;99.90
4090;DHT22;2059;48.538;12.146;2023-12-20T13:43:01;6.80;99.90
4090;DHT22;2059;48.538;12.146;2023-12-20T13:48:04;7.20;99.90
4090;DHT22;2059;48.538;12.146;2023-12-20T13:53:06;7.40;99.90
4090;DHT22;2059;48.538;12.146;2023-12-20T13:58:09;7.30;99.10
4090;DHT22;2059;48.538;12.146;2023-12-20T14:03:11;7.10;99.90
4090;DHT22;2059;48.538;12.146;2023-12-20T14:08:13;6.90;99.90
4090;DHT22;2059;48.538;12.146;2023-12-20T14:13:16;6.70;99.70
4090;DHT22;2059;48.538;12.146;2023-12-20T14:18:18;6.80;99.90
4090;DHT22;2059;48.538;12.146;2023-12-20T14:23:19;6.70;99.10
4090;DHT22;2059;48.538;12.146;2023-12-20T14:28:23;6.70;99.50
4090;DHT22;2059;48.538;12.146;2023-12-20T14:33:24;6.60;99.10
4090;DHT22;2059;48.538;12.146;2023-12-20T14:38:26;6.40;99.30
4090;DHT22;2059;48.538;12.146;2023-12-20T14:43:30;6.20;99.60
4090;DHT22;2059;48.538;12.146;2023-12-20T14:48:31;6.00;99.90
4090;DHT22;2059;48.538;12.146;2023-12-20T14:53:33;5.90;99.90
4090;DHT22;2059;48.538;12.146;2023-12-20T14:58:39;6.10;99.90
4090;DHT22;2059;48.538;12.146;2023-12-20T15:03:41;5.80;99.70
4090;DHT22;2059;48.538;12.146;2023-12-20T15:08:42;5.60;99.90
4090;DHT22;2059;48.538;12.146;2023-12-20T15:13:45;5.60;99.90
4090;DHT22;2059;48.538;12.146;2023-12-20T15:18:55;5.70;99.70
4090;DHT22;2059;48.538;12.146;2023-12-20T15:23:57;5.80;99.50
4090;DHT22;2059;48.538;12.146;2023-12-20T15:29:07;5.60;98.90
4090;DHT22;2059;48.538;12.146;2023-12-20T15:34:09;5.50;99.00
4090;DHT22;2059;48.538;12.146;2023-12-20T15:39:12;5.50;98.90
4090;DHT22;2059;48.538;12.146;2023-12-20T15:44:16;5.20;99.30
4090;DHT22;2059;48.538;12.146;2023-12-20T15:49:17;5.60;98.90
4090;DHT22;2059;48.538;12.146;2023-12-20T15:54:19;5.60;98.70
4090;DHT22;2059;48.538;12.146;2023-12-20T15:59:22;5.50;99.10
4090;DHT22;2059;48.538;12.146;2023-12-20T16:04:24;5.60;98.90
4090;DHT22;2059;48.538;12.146;2023-12-20T16:09:26;5.40;99.40
4090;DHT22;2059;48.538;12.146;2023-12-20T16:14:29;5.40;99.30
4090;DHT22;2059;48.538;12.146;2023-12-20T16:19:31;5.30;99.30
4090;DHT22;2059;48.538;12.146;2023-12-20T16:24:33;5.10;99.50
4090;DHT22;2059;48.538;12.146;2023-12-20T16:29:37;5.00;99.80
4090;DHT22;2059;48.538;12.146;2023-12-20T16:34:38;5.10;99.90
4090;DHT22;2059;48.538;12.146;2023-12-20T16:39:40;5.50;99.80
4090;DHT22;2059;48.538;12.146;2023-12-20T16:44:43;5.40;99.30
4090;DHT22;2059;48.538;12.146;2023-12-20T16:49:45;5.40;99.50
4090;DHT22;2059;48.538;12.146;2023-12-20T16:54:47;5.50;99.30
4090;DHT22;2059;48.538;12.146;2023-12-20T16:59:50;5.50;99.20
4090;DHT22;2059;48.538;12.146;2023-12-20T17:04:52;5.80;98.90
4090;DHT22;2059;48.538;12.146;2023-12-20T17:09:53;5.30;99.30
4090;DHT22;2059;48.538;12.146;2023-12-20T17:14:56;5.10;99.60
4090;DHT22;2059;48.538;12.146;2023-12-20T17:20:00;5.10;99.80
4090;DHT22;2059;48.538;12.146;2023-12-20T17:25:02;5.10;99.90
4090;DHT22;2059;48.538;12.146;2023-12-20T17:30:07;5.30;99.50
4090;DHT22;2059;48.538;12.146;2023-12-20T17:35:09;4.90;99.80
4090;DHT22;2059;48.538;12.146;2023-12-20T17:40:11;4.60;99.90
4090;DHT22;2059;48.538;12.146;2023-12-20T17:45:14;4.90;99.90
4090;DHT22;2059;48.538;12.146;2023-12-20T17:50:16;4.80;99.90
4090;DHT22;2059;48.538;12.146;2023-12-20T17:55:18;4.80;99.90
4090;DHT22;2059;48.538;12.146;2023-12-20T18:00:25;4.80;99.90
4090;DHT22;2059;48.538;12.146;2023-12-20T18:05:27;4.50;99.90
4090;DHT22;2059;48.538;12.146;2023-12-20T18:10:29;4.60;99.90
4090;DHT22;2059;48.538;12.146;2023-12-20T18:15:32;4.70;99.80
4090;DHT22;2059;48.538;12.146;2023-12-20T18:20:34;4.70;99.90
4090;DHT22;2059;48.538;12.146;2023-12-20T18:25:36;4.80;99.90
4090;DHT22;2059;48.538;12.146;2023-12-20T18:30:39;4.60;99.90
4090;DHT22;2059;48.538;12.146;2023-12-20T18:35:41;4.80;99.90
4090;DHT22;2059;48.538;12.146;2023-12-20T18:40:44;4.70;99.90
4090;DHT22;2059;48.538;12.146;2023-12-20T18:45:49;4.80;99.90
4090;DHT22;2059;48.538;12.146;2023-12-20T18:50:51;4.80;99.90
4090;DHT22;2059;48.538;12.146;2023-12-20T18:55:53;4.70;99.90
4090;DHT22;2059;48.538;12.146;2023-12-20T19:00:56;4.80;99.90
4090;DHT22;2059;48.538;12.146;2023-12-20T19:05:58;4.90;99.90
4090;DHT22;2059;48.538;12.146;2023-12-20T19:11:01;4.90;99.90
4090;DHT22;2059;48.538;12.146;2023-12-20T19:16:05;4.90;99.90
4090;DHT22;2059;48.538;12.146;2023-12-20T19:21:07;4.90;99.90
4090;DHT22;2059;48.538;12.146;2023-12-20T19:26:09;5.00;99.90
4090;DHT22;2059;48.538;12.146;2023-12-20T19:31:12;4.90;99.90
4090;DHT22;2059;48.538;12.146;2023-12-20T19:36:14;5.20;99.90
4090;DHT22;2059;48.538;12.146;2023-12-20T19:41:16;5.00;99.90
4090;DHT22;2059;48.538;12.146;2023-12-20T19:46:20;4.90;99.90
4090;DHT22;2059;48.538;12.146;2023-12-20T19:51:21;5.10;99.90
4090;DHT22;2059;48.538;12.146;2023-12-20T19:56:23;5.00;99.90
4090;DHT22;2059;48.538;12.146;2023-12-20T20:01:27;5.00;99.90
4090;DHT22;2059;48.538;12.146;2023-12-20T20:06:29;5.30;99.90
4090;DHT22;2059;48.538;12.146;2023-12-20T20:11:31;5.40;99.70
4090;DHT22;2059;48.538;12.146;2023-12-20T20:16:34;5.20;99.90
4090;DHT22;2059;48.538;12.146;2023-12-20T20:21:36;5.20;99.90
4090;DHT22;2059;48.538;12.146;2023-12-20T20:26:38;5.10;99.90
4090;DHT22;2059;48.538;12.146;2023-12-20T20:31:41;5.30;99.50
4090;DHT22;2059;48.538;12.146;2023-12-20T20:36:43;5.20;99.70
4090;DHT22;2059;48.538;12.146;2023-12-20T20:41:45;5.30;99.50
4090;DHT22;2059;48.538;12.146;2023-12-20T20:46:48;5.30;99.80
4090;DHT22;2059;48.538;12.146;2023-12-20T20:51:51;5.40;99.90
4090;DHT22;2059;48.538;12.146;2023-12-20T20:56:53;5.40;99.90
4090;DHT22;2059;48.538;12.146;2023-12-20T21:01:56;5.20;99.90
4090;DHT22;2059;48.538;12.146;2023-12-20T21:06:58;5.20;99.90
4090;DHT22;2059;48.538;12.146;2023-12-20T21:12:00;5.20;99.90
4090;DHT22;2059;48.538;12.146;2023-12-20T21:17:03;5.20;99.90
4090;DHT22;2059;48.538;12.146;2023-12-20T21:22:05;5.20;99.90
4090;DHT22;2059;48.538;12.146;2023-12-20T21:27:06;5.10;99.90
4090;DHT22;2059;48.538;12.146;2023-12-20T21:32:10;5.20;99.90
4090;DHT22;2059;48.538;12.146;2023-12-20T21:37:12;5.00;99.90
4090;DHT22;2059;48.538;12.146;2023-12-20T21:42:14;5.00;99.90
4090;DHT22;2059;48.538;12.146;2023-12-20T21:47:17;5.00;99.90
4090;DHT22;2059;48.538;12.146;2023-12-20T21:52:19;5.00;99.90
4090;DHT22;2059;48.538;12.146;2023-12-20T21:57:21;5.20;99.90
4090;DHT22;2059;48.538;12.146;2023-12-20T22:02:24;5.20;99.90
4090;DHT22;2059;48.538;12.146;2023-12-20T22:07:26;5.30;99.90
4090;DHT22;2059;48.538;12.146;2023-12-20T22:12:27;5.40;99.90
4090;DHT22;2059;48.538;12.146;2023-12-20T22:17:31;5.30;99.90
4090;DHT22;2059;48.538;12.146;2023-12-20T22:22:32;5.10;99.90
4090;DHT22;2059;48.538;12.146;2023-12-20T22:27:34;5.10;99.90
4090;DHT22;2059;48.538;12.146;2023-12-20T22:32:37;5.20;99.90
4090;DHT22;2059;48.538;12.146;2023-12-20T22:37:39;5.20;99.90
4090;DHT22;2059;48.538;12.146;2023-12-20T22:42:42;5.30;99.90
4090;DHT22;2059;48.538;12.146;2023-12-20T22:47:45;5.00;99.90
4090;DHT22;2059;48.538;12.146;2023-12-20T22:52:47;5.30;99.90
4090;DHT22;2059;48.538;12.146;2023-12-20T23:02:53;5.20;99.90
4090;DHT22;2059;48.538;12.146;2023-12-20T23:07:55;5.20;99.90
4090;DHT22;2059;48.538;12.146;2023-12-20T23:12:57;5.10;99.90
4090;DHT22;2059;48.538;12.146;2023-12-20T23:18:00;5.20;99.90
4090;DHT22;2059;48.538;12.146;2023-12-20T23:23:02;5.00;99.90
4090;DHT22;2059;48.538;12.146;2023-12-20T23:28:04;4.90;99.90
4090;DHT22;2059;48.538;12.146;2023-12-20T23:33:07;4.80;99.90
4090;DHT22;2059;48.538;12.146;2023-12-20T23:38:09;5.10;99.90
4090;DHT22;2059;48.538;12.146;2023-12-20T23:43:10;5.00;99.90
4090;DHT22;2059;48.538;12.146;2023-12-20T23:48:13;5.00;99.90
4090;DHT22;2059;48.538;12.146;2023-12-20T23:53:15;5.00;99.90
4090;DHT22;2059;48.538;12.146;2023-12-20T23:58:17;5.00;99.90
